sensor_id;sensor_type;location;lat;lon;timestamp;P1;durP1;ratioP1;P2;durP2;ratioP2
10303;SDS011;5197;48.152;8.590;2023-08-17T00:01:59;4.63;;;4.33;;
10303;SDS011;5197;48.152;8.590;2023-08-17T00:04:26;5.37;;;4.03;;
10303;SDS011;5197;48.152;8.590;2023-08-17T00:06:53;5.23;;;4.77;;
10303;SDS011;5197;48.152;8.590;2023-08-17T00:09:20;6.50;;;4.93;;
10303;SDS011;5197;48.152;8.590;2023-08-17T00:11:48;6.20;;;4.93;;
10303;SDS011;5197;48.152;8.590;2023-08-17T00:14:15;7.77;;;5.03;;
10303;SDS011;5197;48.152;8.590;2023-08-17T00:16:42;5.17;;;4.77;;
10303;SDS011;5197;48.152;8.590;2023-08-17T00:19:09;6.57;;;5.70;;
10303;SDS011;5197;48.152;8.590;2023-08-17T00:21:36;11.57;;;5.80;;
10303;SDS011;5197;48.152;8.590;2023-08-17T00:24:04;9.23;;;4.90;;
10303;SDS011;5197;48.152;8.590;2023-08-17T00:26:31;6.17;;;5.13;;
10303;SDS011;5197;48.152;8.590;2023-08-17T00:28:58;5.27;;;4.30;;
10303;SDS011;5197;48.152;8.590;2023-08-17T00:31:26;6.20;;;3.73;;
10303;SDS011;5197;48.152;8.590;2023-08-17T00:33:53;5.33;;;4.30;;
10303;SDS011;5197;48.152;8.590;2023-08-17T00:36:20;5.33;;;4.60;;
10303;SDS011;5197;48.152;8.590;2023-08-17T00:38:47;4.90;;;4.40;;
10303;SDS011;5197;48.152;8.590;2023-08-17T00:41:14;5.50;;;5.07;;
10303;SDS011;5197;48.152;8.590;2023-08-17T00:43:41;5.07;;;4.30;;
10303;SDS011;5197;48.152;8.590;2023-08-17T00:46:08;4.97;;;4.47;;
10303;SDS011;5197;48.152;8.590;2023-08-17T00:48:35;5.17;;;3.93;;
10303;SDS011;5197;48.152;8.590;2023-08-17T00:51:03;5.67;;;4.53;;
10303;SDS011;5197;48.152;8.590;2023-08-17T00:53:31;6.03;;;4.90;;
10303;SDS011;5197;48.152;8.590;2023-08-17T00:55:59;6.03;;;5.53;;
10303;SDS011;5197;48.152;8.590;2023-08-17T00:58:28;5.90;;;5.33;;
10303;SDS011;5197;48.152;8.590;2023-08-17T01:00:55;5.87;;;5.37;;
10303;SDS011;5197;48.152;8.590;2023-08-17T01:03:22;11.07;;;5.83;;
10303;SDS011;5197;48.152;8.590;2023-08-17T01:05:51;6.33;;;5.70;;
10303;SDS011;5197;48.152;8.590;2023-08-17T01:08:18;7.87;;;6.33;;
10303;SDS011;5197;48.152;8.590;2023-08-17T01:13:38;6.53;;;5.93;;
10303;SDS011;5197;48.152;8.590;2023-08-17T01:16:29;7.27;;;6.57;;
10303;SDS011;5197;48.152;8.590;2023-08-17T01:19:01;10.80;;;7.00;;
10303;SDS011;5197;48.152;8.590;2023-08-17T01:21:46;7.10;;;6.13;;
10303;SDS011;5197;48.152;8.590;2023-08-17T01:24:16;8.03;;;7.33;;
10303;SDS011;5197;48.152;8.590;2023-08-17T01:26:43;9.07;;;8.27;;
10303;SDS011;5197;48.152;8.590;2023-08-17T01:29:10;8.93;;;8.13;;
10303;SDS011;5197;48.152;8.590;2023-08-17T01:31:49;8.90;;;8.10;;
10303;SDS011;5197;48.152;8.590;2023-08-17T01:34:18;10.03;;;8.63;;
10303;SDS011;5197;48.152;8.590;2023-08-17T01:36:53;10.20;;;6.60;;
10303;SDS011;5197;48.152;8.590;2023-08-17T01:39:26;6.93;;;6.23;;
10303;SDS011;5197;48.152;8.590;2023-08-17T01:41:58;7.33;;;6.17;;
10303;SDS011;5197;48.152;8.590;2023-08-17T01:44:27;8.50;;;5.80;;
10303;SDS011;5197;48.152;8.590;2023-08-17T01:46:54;9.20;;;7.03;;
10303;SDS011;5197;48.152;8.590;2023-08-17T01:49:21;14.87;;;6.07;;
10303;SDS011;5197;48.152;8.590;2023-08-17T01:51:49;8.77;;;6.57;;
10303;SDS011;5197;48.152;8.590;2023-08-17T01:54:16;27.53;;;8.37;;
10303;SDS011;5197;48.152;8.590;2023-08-17T01:56:43;13.17;;;7.37;;
10303;SDS011;5197;48.152;8.590;2023-08-17T01:59:10;89.07;;;9.33;;
10303;SDS011;5197;48.152;8.590;2023-08-17T02:01:37;92.23;;;10.43;;
10303;SDS011;5197;48.152;8.590;2023-08-17T02:04:05;243.57;;;14.37;;
10303;SDS011;5197;48.152;8.590;2023-08-17T02:06:32;55.60;;;11.23;;
10303;SDS011;5197;48.152;8.590;2023-08-17T02:08:59;15.97;;;10.40;;
10303;SDS011;5197;48.152;8.590;2023-08-17T02:11:26;10.23;;;7.73;;
10303;SDS011;5197;48.152;8.590;2023-08-17T02:13:53;17.07;;;7.73;;
10303;SDS011;5197;48.152;8.590;2023-08-17T02:16:20;7.10;;;6.40;;
10303;SDS011;5197;48.152;8.590;2023-08-17T02:18:48;8.30;;;6.53;;
10303;SDS011;5197;48.152;8.590;2023-08-17T02:21:15;7.27;;;6.03;;
10303;SDS011;5197;48.152;8.590;2023-08-17T02:23:42;6.40;;;5.87;;
10303;SDS011;5197;48.152;8.590;2023-08-17T02:26:09;5.63;;;5.23;;
10303;SDS011;5197;48.152;8.590;2023-08-17T02:28:36;8.17;;;5.77;;
10303;SDS011;5197;48.152;8.590;2023-08-17T02:31:03;11.03;;;7.83;;
10303;SDS011;5197;48.152;8.590;2023-08-17T02:33:30;8.93;;;7.80;;
10303;SDS011;5197;48.152;8.590;2023-08-17T02:35:58;9.03;;;6.97;;
10303;SDS011;5197;48.152;8.590;2023-08-17T02:38:25;7.00;;;6.30;;
10303;SDS011;5197;48.152;8.590;2023-08-17T02:40:52;7.60;;;5.80;;
10303;SDS011;5197;48.152;8.590;2023-08-17T02:43:19;6.53;;;6.03;;
10303;SDS011;5197;48.152;8.590;2023-08-17T02:45:46;6.43;;;5.93;;
10303;SDS011;5197;48.152;8.590;2023-08-17T02:48:19;6.80;;;6.20;;
10303;SDS011;5197;48.152;8.590;2023-08-17T02:50:46;11.97;;;7.13;;
10303;SDS011;5197;48.152;8.590;2023-08-17T02:53:13;8.77;;;6.60;;
10303;SDS011;5197;48.152;8.590;2023-08-17T02:55:40;6.93;;;6.33;;
10303;SDS011;5197;48.152;8.590;2023-08-17T02:58:07;6.10;;;5.60;;
10303;SDS011;5197;48.152;8.590;2023-08-17T03:00:35;6.63;;;5.97;;
10303;SDS011;5197;48.152;8.590;2023-08-17T03:03:02;7.13;;;4.97;;
10303;SDS011;5197;48.152;8.590;2023-08-17T03:05:29;5.53;;;5.13;;
10303;SDS011;5197;48.152;8.590;2023-08-17T03:07:57;4.90;;;4.50;;
10303;SDS011;5197;48.152;8.590;2023-08-17T03:10:24;5.63;;;5.13;;
10303;SDS011;5197;48.152;8.590;2023-08-17T03:12:51;5.63;;;5.13;;
10303;SDS011;5197;48.152;8.590;2023-08-17T03:15:18;6.60;;;5.50;;
10303;SDS011;5197;48.152;8.590;2023-08-17T03:17:45;9.33;;;5.37;;
10303;SDS011;5197;48.152;8.590;2023-08-17T03:20:13;5.83;;;5.30;;
10303;SDS011;5197;48.152;8.590;2023-08-17T03:22:40;5.70;;;5.30;;
10303;SDS011;5197;48.152;8.590;2023-08-17T03:25:07;7.80;;;5.93;;
10303;SDS011;5197;48.152;8.590;2023-08-17T03:27:34;7.83;;;5.53;;
10303;SDS011;5197;48.152;8.590;2023-08-17T03:30:02;6.93;;;5.63;;
10303;SDS011;5197;48.152;8.590;2023-08-17T03:32:30;10.47;;;6.23;;
10303;SDS011;5197;48.152;8.590;2023-08-17T03:34:57;8.90;;;5.93;;
10303;SDS011;5197;48.152;8.590;2023-08-17T03:37:24;7.30;;;6.60;;
10303;SDS011;5197;48.152;8.590;2023-08-17T03:39:52;6.90;;;5.67;;
10303;SDS011;5197;48.152;8.590;2023-08-17T03:42:19;6.63;;;5.97;;
10303;SDS011;5197;48.152;8.590;2023-08-17T03:44:46;6.57;;;5.70;;
10303;SDS011;5197;48.152;8.590;2023-08-17T03:47:13;6.17;;;5.67;;
10303;SDS011;5197;48.152;8.590;2023-08-17T03:49:41;6.17;;;5.57;;
10303;SDS011;5197;48.152;8.590;2023-08-17T03:52:07;6.63;;;6.00;;
10303;SDS011;5197;48.152;8.590;2023-08-17T03:54:35;6.17;;;5.57;;
10303;SDS011;5197;48.152;8.590;2023-08-17T03:57:02;6.67;;;4.77;;
10303;SDS011;5197;48.152;8.590;2023-08-17T03:59:30;5.83;;;4.43;;
10303;SDS011;5197;48.152;8.590;2023-08-17T04:01:56;9.33;;;4.17;;
10303;SDS011;5197;48.152;8.590;2023-08-17T04:04:24;4.30;;;3.63;;
10303;SDS011;5197;48.152;8.590;2023-08-17T04:06:51;3.20;;;2.90;;
10303;SDS011;5197;48.152;8.590;2023-08-17T04:09:18;24.43;;;2.70;;
10303;SDS011;5197;48.152;8.590;2023-08-17T04:11:45;10.93;;;2.73;;
10303;SDS011;5197;48.152;8.590;2023-08-17T04:14:14;21.73;;;3.10;;
10303;SDS011;5197;48.152;8.590;2023-08-17T04:16:43;3.23;;;3.03;;
10303;SDS011;5197;48.152;8.590;2023-08-17T04:19:10;3.13;;;2.90;;
10303;SDS011;5197;48.152;8.590;2023-08-17T04:21:37;4.93;;;3.40;;
10303;SDS011;5197;48.152;8.590;2023-08-17T04:24:04;25.57;;;3.57;;
10303;SDS011;5197;48.152;8.590;2023-08-17T04:26:32;6.00;;;2.97;;
10303;SDS011;5197;48.152;8.590;2023-08-17T04:28:59;9.20;;;3.63;;
10303;SDS011;5197;48.152;8.590;2023-08-17T04:31:26;9.20;;;4.10;;
10303;SDS011;5197;48.152;8.590;2023-08-17T04:33:53;32.73;;;4.40;;
10303;SDS011;5197;48.152;8.590;2023-08-17T04:36:20;28.77;;;4.00;;
10303;SDS011;5197;48.152;8.590;2023-08-17T04:38:47;45.30;;;4.13;;
10303;SDS011;5197;48.152;8.590;2023-08-17T04:41:14;13.07;;;4.30;;
10303;SDS011;5197;48.152;8.590;2023-08-17T04:43:44;12.13;;;4.23;;
10303;SDS011;5197;48.152;8.590;2023-08-17T04:46:13;3.83;;;3.63;;
10303;SDS011;5197;48.152;8.590;2023-08-17T04:48:40;5.50;;;4.77;;
10303;SDS011;5197;48.152;8.590;2023-08-17T04:51:07;4.10;;;3.80;;
10303;SDS011;5197;48.152;8.590;2023-08-17T04:53:34;4.63;;;4.33;;
10303;SDS011;5197;48.152;8.590;2023-08-17T04:56:02;23.87;;;4.17;;
10303;SDS011;5197;48.152;8.590;2023-08-17T04:58:29;3.50;;;3.30;;
10303;SDS011;5197;48.152;8.590;2023-08-17T05:00:56;2.70;;;2.60;;
10303;SDS011;5197;48.152;8.590;2023-08-17T05:03:23;3.60;;;3.30;;
10303;SDS011;5197;48.152;8.590;2023-08-17T05:05:57;10.93;;;3.43;;
10303;SDS011;5197;48.152;8.590;2023-08-17T05:08:24;9.37;;;3.40;;
10303;SDS011;5197;48.152;8.590;2023-08-17T05:10:51;11.10;;;3.20;;
10303;SDS011;5197;48.152;8.590;2023-08-17T05:13:18;15.37;;;3.20;;
10303;SDS011;5197;48.152;8.590;2023-08-17T05:15:46;15.53;;;6.50;;
10303;SDS011;5197;48.152;8.590;2023-08-17T05:18:14;31.70;;;14.17;;
10303;SDS011;5197;48.152;8.590;2023-08-17T05:20:41;15.07;;;5.37;;
10303;SDS011;5197;48.152;8.590;2023-08-17T05:23:08;6.77;;;5.20;;
10303;SDS011;5197;48.152;8.590;2023-08-17T05:25:35;3.47;;;3.27;;
10303;SDS011;5197;48.152;8.590;2023-08-17T05:28:03;5.40;;;4.50;;
10303;SDS011;5197;48.152;8.590;2023-08-17T05:30:30;5.63;;;4.03;;
10303;SDS011;5197;48.152;8.590;2023-08-17T05:32:57;4.20;;;3.87;;
10303;SDS011;5197;48.152;8.590;2023-08-17T05:35:24;6.40;;;3.97;;
10303;SDS011;5197;48.152;8.590;2023-08-17T05:37:52;4.20;;;3.90;;
10303;SDS011;5197;48.152;8.590;2023-08-17T05:40:19;4.13;;;3.50;;
10303;SDS011;5197;48.152;8.590;2023-08-17T05:42:47;3.40;;;3.20;;
10303;SDS011;5197;48.152;8.590;2023-08-17T05:45:16;3.80;;;3.60;;
10303;SDS011;5197;48.152;8.590;2023-08-17T05:47:43;3.57;;;3.17;;
10303;SDS011;5197;48.152;8.590;2023-08-17T05:50:12;3.43;;;2.93;;
10303;SDS011;5197;48.152;8.590;2023-08-17T05:52:40;3.80;;;3.50;;
10303;SDS011;5197;48.152;8.590;2023-08-17T05:55:08;4.00;;;3.40;;
10303;SDS011;5197;48.152;8.590;2023-08-17T05:57:37;4.00;;;3.70;;
10303;SDS011;5197;48.152;8.590;2023-08-17T06:00:05;3.47;;;3.23;;
10303;SDS011;5197;48.152;8.590;2023-08-17T06:02:35;3.73;;;3.40;;
10303;SDS011;5197;48.152;8.590;2023-08-17T06:05:03;3.27;;;3.07;;
10303;SDS011;5197;48.152;8.590;2023-08-17T06:07:30;4.33;;;2.87;;
10303;SDS011;5197;48.152;8.590;2023-08-17T06:09:58;3.80;;;2.70;;
10303;SDS011;5197;48.152;8.590;2023-08-17T06:12:25;2.47;;;2.37;;
10303;SDS011;5197;48.152;8.590;2023-08-17T06:14:52;2.90;;;2.80;;
10303;SDS011;5197;48.152;8.590;2023-08-17T06:17:19;7.27;;;3.50;;
10303;SDS011;5197;48.152;8.590;2023-08-17T06:19:46;2.60;;;2.40;;
10303;SDS011;5197;48.152;8.590;2023-08-17T06:22:13;3.30;;;2.70;;
10303;SDS011;5197;48.152;8.590;2023-08-17T06:24:40;2.90;;;2.80;;
10303;SDS011;5197;48.152;8.590;2023-08-17T06:27:07;2.60;;;2.40;;
10303;SDS011;5197;48.152;8.590;2023-08-17T06:29:34;2.90;;;2.70;;
10303;SDS011;5197;48.152;8.590;2023-08-17T06:32:01;4.05;;;2.80;;
10303;SDS011;5197;48.152;8.590;2023-08-17T06:34:28;4.85;;;2.35;;
10303;SDS011;5197;48.152;8.590;2023-08-17T06:36:58;2.70;;;2.45;;
10303;SDS011;5197;48.152;8.590;2023-08-17T06:39:26;2.83;;;2.63;;
10303;SDS011;5197;48.152;8.590;2023-08-17T06:41:54;4.53;;;2.85;;
10303;SDS011;5197;48.152;8.590;2023-08-17T06:44:21;3.22;;;2.88;;
10303;SDS011;5197;48.152;8.590;2023-08-17T06:46:48;3.28;;;3.00;;
10303;SDS011;5197;48.152;8.590;2023-08-17T06:49:15;3.85;;;3.50;;
10303;SDS011;5197;48.152;8.590;2023-08-17T06:51:42;3.63;;;3.40;;
10303;SDS011;5197;48.152;8.590;2023-08-17T06:54:09;3.50;;;3.25;;
10303;SDS011;5197;48.152;8.590;2023-08-17T06:56:36;4.05;;;3.70;;
10303;SDS011;5197;48.152;8.590;2023-08-17T06:59:03;5.00;;;4.00;;
10303;SDS011;5197;48.152;8.590;2023-08-17T07:01:30;4.80;;;3.60;;
10303;SDS011;5197;48.152;8.590;2023-08-17T07:03:57;3.97;;;3.75;;
10303;SDS011;5197;48.152;8.590;2023-08-17T07:06:25;4.25;;;3.90;;
10303;SDS011;5197;48.152;8.590;2023-08-17T07:08:52;3.60;;;3.40;;
10303;SDS011;5197;48.152;8.590;2023-08-17T07:11:19;4.35;;;3.85;;
10303;SDS011;5197;48.152;8.590;2023-08-17T07:13:46;3.83;;;3.58;;
10303;SDS011;5197;48.152;8.590;2023-08-17T07:16:13;4.35;;;3.95;;
10303;SDS011;5197;48.152;8.590;2023-08-17T07:18:40;4.40;;;4.00;;
10303;SDS011;5197;48.152;8.590;2023-08-17T07:21:07;4.25;;;3.83;;
10303;SDS011;5197;48.152;8.590;2023-08-17T07:23:35;4.57;;;4.28;;
10303;SDS011;5197;48.152;8.590;2023-08-17T07:26:02;4.90;;;4.50;;
10303;SDS011;5197;48.152;8.590;2023-08-17T07:28:29;4.90;;;4.50;;
10303;SDS011;5197;48.152;8.590;2023-08-17T07:30:56;5.75;;;5.32;;
10303;SDS011;5197;48.152;8.590;2023-08-17T07:33:23;8.07;;;5.45;;
10303;SDS011;5197;48.152;8.590;2023-08-17T07:35:50;7.43;;;5.55;;
10303;SDS011;5197;48.152;8.590;2023-08-17T07:38:19;5.47;;;5.00;;
10303;SDS011;5197;48.152;8.590;2023-08-17T07:40:46;5.70;;;5.20;;
10303;SDS011;5197;48.152;8.590;2023-08-17T07:43:14;7.32;;;5.15;;
10303;SDS011;5197;48.152;8.590;2023-08-17T07:45:41;7.20;;;4.82;;
10303;SDS011;5197;48.152;8.590;2023-08-17T07:48:08;5.32;;;4.85;;
10303;SDS011;5197;48.152;8.590;2023-08-17T07:50:35;5.65;;;4.82;;
10303;SDS011;5197;48.152;8.590;2023-08-17T07:53:02;5.22;;;4.72;;
10303;SDS011;5197;48.152;8.590;2023-08-17T07:55:30;5.65;;;4.22;;
10303;SDS011;5197;48.152;8.590;2023-08-17T07:58:15;4.70;;;4.18;;
10303;SDS011;5197;48.152;8.590;2023-08-17T08:00:42;4.80;;;4.50;;
10303;SDS011;5197;48.152;8.590;2023-08-17T08:03:09;5.25;;;4.85;;
10303;SDS011;5197;48.152;8.590;2023-08-17T08:05:37;5.30;;;4.85;;
10303;SDS011;5197;48.152;8.590;2023-08-17T08:08:04;5.25;;;4.75;;
10303;SDS011;5197;48.152;8.590;2023-08-17T08:10:31;5.25;;;4.85;;
10303;SDS011;5197;48.152;8.590;2023-08-17T08:12:59;5.72;;;4.68;;
10303;SDS011;5197;48.152;8.590;2023-08-17T08:15:26;4.70;;;4.30;;
10303;SDS011;5197;48.152;8.590;2023-08-17T08:17:53;5.55;;;4.38;;
10303;SDS011;5197;48.152;8.590;2023-08-17T08:20:20;6.10;;;4.30;;
10303;SDS011;5197;48.152;8.590;2023-08-17T08:22:48;5.72;;;4.68;;
10303;SDS011;5197;48.152;8.590;2023-08-17T08:25:15;4.80;;;4.35;;
10303;SDS011;5197;48.152;8.590;2023-08-17T08:27:42;5.30;;;4.90;;
10303;SDS011;5197;48.152;8.590;2023-08-17T08:30:09;6.13;;;5.03;;
10303;SDS011;5197;48.152;8.590;2023-08-17T08:32:37;4.88;;;4.45;;
10303;SDS011;5197;48.152;8.590;2023-08-17T08:35:04;5.32;;;4.82;;
10303;SDS011;5197;48.152;8.590;2023-08-17T08:37:31;5.18;;;4.63;;
10303;SDS011;5197;48.152;8.590;2023-08-17T08:39:59;5.07;;;4.43;;
10303;SDS011;5197;48.152;8.590;2023-08-17T08:42:26;4.63;;;4.32;;
10303;SDS011;5197;48.152;8.590;2023-08-17T08:44:53;7.13;;;4.60;;
10303;SDS011;5197;48.152;8.590;2023-08-17T08:47:20;4.40;;;4.05;;
10303;SDS011;5197;48.152;8.590;2023-08-17T08:49:59;5.32;;;4.38;;
10303;SDS011;5197;48.152;8.590;2023-08-17T08:52:34;5.18;;;4.25;;
10303;SDS011;5197;48.152;8.590;2023-08-17T08:55:05;6.03;;;4.57;;
10303;SDS011;5197;48.152;8.590;2023-08-17T08:57:34;5.43;;;4.45;;
10303;SDS011;5197;48.152;8.590;2023-08-17T09:00:03;4.28;;;3.80;;
10303;SDS011;5197;48.152;8.590;2023-08-17T09:02:30;4.93;;;4.43;;
10303;SDS011;5197;48.152;8.590;2023-08-17T09:04:59;4.43;;;4.03;;
10303;SDS011;5197;48.152;8.590;2023-08-17T09:07:27;4.22;;;3.92;;
10303;SDS011;5197;48.152;8.590;2023-08-17T09:09:56;5.38;;;4.20;;
10303;SDS011;5197;48.152;8.590;2023-08-17T09:12:24;4.80;;;4.40;;
10303;SDS011;5197;48.152;8.590;2023-08-17T09:15:06;5.20;;;4.80;;
10303;SDS011;5197;48.152;8.590;2023-08-17T09:17:33;4.07;;;3.88;;
10303;SDS011;5197;48.152;8.590;2023-08-17T09:20:03;5.13;;;4.35;;
10303;SDS011;5197;48.152;8.590;2023-08-17T09:25:10;5.05;;;4.15;;
10303;SDS011;5197;48.152;8.590;2023-08-17T09:27:38;5.40;;;4.57;;
10303;SDS011;5197;48.152;8.590;2023-08-17T09:30:06;5.47;;;4.28;;
10303;SDS011;5197;48.152;8.590;2023-08-17T09:32:35;8.20;;;4.22;;
10303;SDS011;5197;48.152;8.590;2023-08-17T09:35:03;4.55;;;3.90;;
10303;SDS011;5197;48.152;8.590;2023-08-17T09:37:34;4.97;;;3.67;;
10303;SDS011;5197;48.152;8.590;2023-08-17T09:40:01;4.20;;;3.90;;
10303;SDS011;5197;48.152;8.590;2023-08-17T09:42:28;4.93;;;3.83;;
10303;SDS011;5197;48.152;8.590;2023-08-17T09:44:57;3.95;;;3.72;;
10303;SDS011;5197;48.152;8.590;2023-08-17T09:47:27;4.10;;;3.75;;
10303;SDS011;5197;48.152;8.590;2023-08-17T09:49:56;4.25;;;3.22;;
10303;SDS011;5197;48.152;8.590;2023-08-17T09:52:24;4.03;;;3.72;;
10303;SDS011;5197;48.152;8.590;2023-08-17T09:54:52;3.67;;;3.47;;
10303;SDS011;5197;48.152;8.590;2023-08-17T09:57:21;5.85;;;3.90;;
10303;SDS011;5197;48.152;8.590;2023-08-17T09:59:49;5.60;;;3.47;;
10303;SDS011;5197;48.152;8.590;2023-08-17T10:02:22;4.15;;;3.78;;
10303;SDS011;5197;48.152;8.590;2023-08-17T10:04:53;4.50;;;4.10;;
10303;SDS011;5197;48.152;8.590;2023-08-17T10:07:24;6.22;;;4.53;;
10303;SDS011;5197;48.152;8.590;2023-08-17T10:10:03;4.88;;;4.20;;
10303;SDS011;5197;48.152;8.590;2023-08-17T10:12:42;4.60;;;4.05;;
10303;SDS011;5197;48.152;8.590;2023-08-17T10:15:15;4.20;;;3.80;;
10303;SDS011;5197;48.152;8.590;2023-08-17T10:18:33;4.15;;;3.78;;
10303;SDS011;5197;48.152;8.590;2023-08-17T10:20:42;5.57;;;3.83;;
10303;SDS011;5197;48.152;8.590;2023-08-17T10:23:16;6.68;;;3.72;;
10303;SDS011;5197;48.152;8.590;2023-08-17T10:25:45;4.38;;;3.65;;
10303;SDS011;5197;48.152;8.590;2023-08-17T10:28:17;4.70;;;3.72;;
10303;SDS011;5197;48.152;8.590;2023-08-17T10:30:45;4.57;;;4.18;;
10303;SDS011;5197;48.152;8.590;2023-08-17T10:33:13;4.30;;;3.90;;
10303;SDS011;5197;48.152;8.590;2023-08-17T10:35:41;5.65;;;3.50;;
10303;SDS011;5197;48.152;8.590;2023-08-17T10:38:09;4.10;;;3.67;;
10303;SDS011;5197;48.152;8.590;2023-08-17T10:40:38;3.90;;;3.60;;
10303;SDS011;5197;48.152;8.590;2023-08-17T10:43:08;5.53;;;3.85;;
10303;SDS011;5197;48.152;8.590;2023-08-17T10:45:36;4.63;;;3.90;;
10303;SDS011;5197;48.152;8.590;2023-08-17T10:50:32;4.35;;;3.70;;
10303;SDS011;5197;48.152;8.590;2023-08-17T10:53:04;4.60;;;3.67;;
10303;SDS011;5197;48.152;8.590;2023-08-17T10:55:40;3.53;;;3.33;;
10303;SDS011;5197;48.152;8.590;2023-08-17T10:58:12;4.05;;;3.67;;
10303;SDS011;5197;48.152;8.590;2023-08-17T11:00:41;3.63;;;3.28;;
10303;SDS011;5197;48.152;8.590;2023-08-17T11:03:17;6.82;;;3.95;;
10303;SDS011;5197;48.152;8.590;2023-08-17T11:05:50;5.07;;;3.95;;
10303;SDS011;5197;48.152;8.590;2023-08-17T11:08:23;4.88;;;3.55;;
10303;SDS011;5197;48.152;8.590;2023-08-17T11:11:36;4.20;;;3.88;;
10303;SDS011;5197;48.152;8.590;2023-08-17T11:13:45;6.13;;;3.50;;
10303;SDS011;5197;48.152;8.590;2023-08-17T11:16:14;4.65;;;3.08;;
10303;SDS011;5197;48.152;8.590;2023-08-17T11:18:44;2.97;;;2.70;;
10303;SDS011;5197;48.152;8.590;2023-08-17T11:21:12;2.85;;;2.60;;
10303;SDS011;5197;48.152;8.590;2023-08-17T11:23:44;4.00;;;2.60;;
10303;SDS011;5197;48.152;8.590;2023-08-17T11:26:11;3.28;;;3.00;;
10303;SDS011;5197;48.152;8.590;2023-08-17T11:28:41;4.50;;;2.75;;
10303;SDS011;5197;48.152;8.590;2023-08-17T11:31:12;4.22;;;2.60;;
10303;SDS011;5197;48.152;8.590;2023-08-17T11:33:42;3.30;;;2.42;;
10303;SDS011;5197;48.152;8.590;2023-08-17T11:36:09;7.25;;;3.25;;
10303;SDS011;5197;48.152;8.590;2023-08-17T11:38:38;5.82;;;3.20;;
10303;SDS011;5197;48.152;8.590;2023-08-17T11:41:06;3.50;;;3.20;;
10303;SDS011;5197;48.152;8.590;2023-08-17T11:43:43;4.28;;;3.20;;
10303;SDS011;5197;48.152;8.590;2023-08-17T11:46:12;4.45;;;3.08;;
10303;SDS011;5197;48.152;8.590;2023-08-17T11:48:40;4.40;;;3.08;;
10303;SDS011;5197;48.152;8.590;2023-08-17T11:51:08;4.72;;;3.33;;
10303;SDS011;5197;48.152;8.590;2023-08-17T11:53:35;5.70;;;3.10;;
10303;SDS011;5197;48.152;8.590;2023-08-17T11:56:05;5.70;;;3.50;;
10303;SDS011;5197;48.152;8.590;2023-08-17T11:58:45;7.30;;;3.50;;
10303;SDS011;5197;48.152;8.590;2023-08-17T12:01:13;3.75;;;3.25;;
10303;SDS011;5197;48.152;8.590;2023-08-17T12:03:43;5.40;;;3.70;;
10303;SDS011;5197;48.152;8.590;2023-08-17T12:06:11;4.13;;;3.45;;
10303;SDS011;5197;48.152;8.590;2023-08-17T12:08:46;6.00;;;3.53;;
10303;SDS011;5197;48.152;8.590;2023-08-17T12:11:17;3.53;;;3.22;;
10303;SDS011;5197;48.152;8.590;2023-08-17T12:13:52;3.67;;;3.38;;
10303;SDS011;5197;48.152;8.590;2023-08-17T12:16:20;6.00;;;2.90;;
10303;SDS011;5197;48.152;8.590;2023-08-17T12:18:49;4.15;;;2.90;;
10303;SDS011;5197;48.152;8.590;2023-08-17T12:21:20;3.80;;;3.30;;
10303;SDS011;5197;48.152;8.590;2023-08-17T12:23:50;4.40;;;3.00;;
10303;SDS011;5197;48.152;8.590;2023-08-17T12:26:21;3.55;;;3.30;;
10303;SDS011;5197;48.152;8.590;2023-08-17T12:28:51;3.80;;;3.30;;
10303;SDS011;5197;48.152;8.590;2023-08-17T12:31:21;5.68;;;3.40;;
10303;SDS011;5197;48.152;8.590;2023-08-17T12:33:51;4.43;;;3.70;;
10303;SDS011;5197;48.152;8.590;2023-08-17T12:36:19;5.05;;;3.35;;
10303;SDS011;5197;48.152;8.590;2023-08-17T12:38:48;4.35;;;3.90;;
10303;SDS011;5197;48.152;8.590;2023-08-17T12:41:15;4.20;;;3.80;;
10303;SDS011;5197;48.152;8.590;2023-08-17T12:43:43;8.25;;;4.15;;
10303;SDS011;5197;48.152;8.590;2023-08-17T12:46:10;6.53;;;4.50;;
10303;SDS011;5197;48.152;8.590;2023-08-17T12:48:39;5.90;;;3.67;;
10303;SDS011;5197;48.152;8.590;2023-08-17T12:51:06;4.68;;;3.83;;
10303;SDS011;5197;48.152;8.590;2023-08-17T12:53:33;3.92;;;3.53;;
10303;SDS011;5197;48.152;8.590;2023-08-17T12:56:01;5.88;;;3.70;;
10303;SDS011;5197;48.152;8.590;2023-08-17T12:58:28;8.93;;;3.70;;
10303;SDS011;5197;48.152;8.590;2023-08-17T13:00:55;6.15;;;3.70;;
10303;SDS011;5197;48.152;8.590;2023-08-17T13:03:22;6.65;;;3.70;;
10303;SDS011;5197;48.152;8.590;2023-08-17T13:05:49;5.38;;;3.22;;
10303;SDS011;5197;48.152;8.590;2023-08-17T13:08:16;4.07;;;3.47;;
10303;SDS011;5197;48.152;8.590;2023-08-17T13:10:44;3.70;;;3.40;;
10303;SDS011;5197;48.152;8.590;2023-08-17T13:13:11;4.47;;;3.25;;
10303;SDS011;5197;48.152;8.590;2023-08-17T13:15:38;3.42;;;3.13;;
10303;SDS011;5197;48.152;8.590;2023-08-17T13:18:06;3.47;;;3.15;;
10303;SDS011;5197;48.152;8.590;2023-08-17T13:20:33;4.95;;;3.88;;
10303;SDS011;5197;48.152;8.590;2023-08-17T13:23:00;5.70;;;3.47;;
10303;SDS011;5197;48.152;8.590;2023-08-17T13:25:28;5.32;;;3.80;;
10303;SDS011;5197;48.152;8.590;2023-08-17T13:27:55;6.95;;;3.65;;
10303;SDS011;5197;48.152;8.590;2023-08-17T13:30:23;3.53;;;3.33;;
10303;SDS011;5197;48.152;8.590;2023-08-17T13:32:51;3.63;;;3.33;;
10303;SDS011;5197;48.152;8.590;2023-08-17T13:35:18;3.20;;;3.00;;
10303;SDS011;5197;48.152;8.590;2023-08-17T13:37:45;6.55;;;3.38;;
10303;SDS011;5197;48.152;8.590;2023-08-17T13:40:19;6.25;;;3.33;;
10303;SDS011;5197;48.152;8.590;2023-08-17T13:42:47;4.15;;;3.00;;
10303;SDS011;5197;48.152;8.590;2023-08-17T13:45:14;10.05;;;3.30;;
10303;SDS011;5197;48.152;8.590;2023-08-17T13:47:41;3.53;;;3.22;;
10303;SDS011;5197;48.152;8.590;2023-08-17T13:50:10;5.53;;;3.45;;
10303;SDS011;5197;48.152;8.590;2023-08-17T13:52:37;4.25;;;3.40;;
10303;SDS011;5197;48.152;8.590;2023-08-17T13:55:05;3.40;;;3.20;;
10303;SDS011;5197;48.152;8.590;2023-08-17T13:57:32;3.30;;;3.10;;
10303;SDS011;5197;48.152;8.590;2023-08-17T14:00:00;3.45;;;3.00;;
10303;SDS011;5197;48.152;8.590;2023-08-17T14:02:27;3.95;;;2.97;;
10303;SDS011;5197;48.152;8.590;2023-08-17T14:04:57;3.17;;;2.97;;
10303;SDS011;5197;48.152;8.590;2023-08-17T14:07:24;3.47;;;3.25;;
10303;SDS011;5197;48.152;8.590;2023-08-17T14:13:06;3.38;;;2.88;;
10303;SDS011;5197;48.152;8.590;2023-08-17T14:15:33;4.43;;;2.95;;
10303;SDS011;5197;48.152;8.590;2023-08-17T14:18:01;4.93;;;2.97;;
10303;SDS011;5197;48.152;8.590;2023-08-17T14:20:29;8.18;;;2.85;;
10303;SDS011;5197;48.152;8.590;2023-08-17T14:22:56;5.90;;;2.80;;
10303;SDS011;5197;48.152;8.590;2023-08-17T14:25:23;6.20;;;2.90;;
10303;SDS011;5197;48.152;8.590;2023-08-17T14:27:50;8.20;;;2.90;;
10303;SDS011;5197;48.152;8.590;2023-08-17T14:30:17;5.07;;;3.10;;
10303;SDS011;5197;48.152;8.590;2023-08-17T14:32:44;3.40;;;2.88;;
10303;SDS011;5197;48.152;8.590;2023-08-17T14:35:11;3.50;;;3.20;;
10303;SDS011;5197;48.152;8.590;2023-08-17T14:37:38;3.47;;;2.95;;
10303;SDS011;5197;48.152;8.590;2023-08-17T14:40:06;3.00;;;2.70;;
10303;SDS011;5197;48.152;8.590;2023-08-17T14:42:33;5.13;;;2.80;;
10303;SDS011;5197;48.152;8.590;2023-08-17T14:45:00;4.05;;;2.72;;
10303;SDS011;5197;48.152;8.590;2023-08-17T14:47:32;4.82;;;3.17;;
10303;SDS011;5197;48.152;8.590;2023-08-17T14:49:59;4.20;;;2.80;;
10303;SDS011;5197;48.152;8.590;2023-08-17T14:52:28;4.68;;;2.83;;
10303;SDS011;5197;48.152;8.590;2023-08-17T14:54:58;3.47;;;2.92;;
10303;SDS011;5197;48.152;8.590;2023-08-17T14:57:25;8.07;;;3.63;;
10303;SDS011;5197;48.152;8.590;2023-08-17T14:59:53;4.22;;;2.80;;
10303;SDS011;5197;48.152;8.590;2023-08-17T15:02:20;7.75;;;2.90;;
10303;SDS011;5197;48.152;8.590;2023-08-17T15:04:48;6.28;;;2.80;;
10303;SDS011;5197;48.152;8.590;2023-08-17T15:07:15;4.35;;;2.90;;
10303;SDS011;5197;48.152;8.590;2023-08-17T15:09:43;5.05;;;2.58;;
10303;SDS011;5197;48.152;8.590;2023-08-17T15:12:10;6.22;;;3.03;;
10303;SDS011;5197;48.152;8.590;2023-08-17T15:14:38;4.05;;;3.08;;
10303;SDS011;5197;48.152;8.590;2023-08-17T15:17:05;9.45;;;3.10;;
10303;SDS011;5197;48.152;8.590;2023-08-17T15:19:32;3.83;;;2.70;;